Terminal Aerodrome Forecast
Issued by NWS Wilmington, OH

Current Version | Previous Version | Text Only | Print | Product List | Glossary Off
Versions: 1 2 3 4 5 6 7 8 9 10 11 12 13 14 15 16 17 18 19 20 21 22 23 24

250
FTUS41 KILN 180858 AAA
TAFCVG
TAF AMD
KCVG 180858Z 1809/1912 22006KT P6SM SCT015 BKN050
      TEMPO 1809/1813 5SM BR BKN012
     FM181300 25005KT P6SM SCT015 SCT050
     FM181500 27011G17KT P6SM SCT035
     FM182300 28009KT P6SM SCT250
     FM191100 19004KT P6SM BKN200=

USA.gov is the U.S. government's official web portal to all federal, state and local government web resources and services.